createdAt,value
2022-09-17T00:03:13.095Z,11.34
2022-09-17T00:08:16.014Z,11.34
2022-09-17T00:13:18.617Z,11.39
2022-09-17T00:18:22.520Z,11.44
2022-09-17T00:23:25.147Z,11.50
2022-09-17T00:28:27.697Z,11.54
2022-09-17T00:33:31.604Z,11.59
2022-09-17T00:38:34.398Z,11.58
2022-09-17T00:43:38.717Z,11.53
2022-09-17T00:48:42.647Z,11.45
2022-09-17T00:53:45.446Z,11.33
2022-09-17T00:58:48.915Z,11.27
2022-09-17T01:03:52.807Z,11.16
2022-09-17T01:09:01.334Z,11.03
2022-09-17T01:14:12.148Z,10.90
2022-09-17T01:19:28.136Z,10.87
2022-09-17T01:24:45.518Z,10.87
2022-09-17T01:29:57.516Z,10.82
2022-09-17T01:35:04.192Z,10.90
2022-09-17T01:40:09.628Z,11.01
2022-09-17T01:45:15.498Z,11.02
2022-09-17T01:50:23.088Z,10.99
2022-09-17T01:55:28.325Z,10.89
2022-09-17T02:00:31.406Z,10.89
2022-09-17T02:05:36.889Z,10.85
2022-09-17T02:10:42.492Z,10.72
2022-09-17T02:15:48.659Z,10.61
2022-09-17T02:20:56.098Z,10.59
2022-09-17T02:26:01.789Z,10.57
2022-09-17T02:31:04.825Z,10.52
2022-09-17T02:36:09.105Z,10.58
2022-09-17T02:41:15.432Z,10.50
2022-09-17T02:46:29.658Z,10.41
2022-09-17T02:51:39.153Z,10.37
2022-09-17T02:56:45.777Z,10.35
2022-09-17T03:01:52.051Z,10.32
2022-09-17T03:06:56.617Z,10.34
2022-09-17T03:11:59.174Z,10.30
2022-09-17T03:17:01.783Z,10.19
2022-09-17T03:22:05.726Z,10.12
2022-09-17T03:27:08.417Z,10.04
2022-09-17T03:32:11.184Z,9.95
2022-09-17T03:37:15.145Z,9.88
2022-09-17T03:42:18.057Z,9.77
2022-09-17T03:47:20.589Z,9.70
2022-09-17T03:52:24.505Z,9.59
2022-09-17T03:57:27.040Z,9.54
2022-09-17T04:02:29.648Z,9.45
2022-09-17T04:07:33.602Z,9.42
2022-09-17T04:12:36.177Z,9.52
2022-09-17T04:17:38.764Z,9.55
2022-09-17T04:22:42.690Z,9.54
2022-09-17T04:27:45.246Z,9.48
2022-09-17T04:32:48.006Z,9.38
2022-09-17T04:37:55.578Z,9.32
2022-09-17T04:42:59.434Z,9.24
2022-09-17T04:48:02.742Z,9.16
2022-09-17T04:53:06.648Z,9.08
2022-09-17T04:58:09.189Z,8.99
2022-09-17T05:03:11.767Z,9.03
2022-09-17T05:08:15.685Z,9.02
2022-09-17T05:13:18.441Z,9.04
2022-09-17T05:18:20.958Z,9.07
2022-09-17T05:23:24.854Z,9.06
2022-09-17T05:28:27.578Z,9.01
2022-09-17T05:33:30.131Z,8.98
2022-09-17T05:38:34.102Z,8.98
2022-09-17T05:43:36.628Z,9.08
2022-09-17T05:48:39.284Z,9.20
2022-09-17T05:53:43.170Z,9.28
2022-09-17T05:58:45.693Z,9.34
2022-09-17T06:03:48.205Z,9.41
2022-09-17T06:08:52.088Z,9.53
2022-09-17T06:13:54.780Z,9.74
2022-09-17T06:18:57.437Z,9.82
2022-09-17T06:24:01.566Z,9.85
2022-09-17T06:29:04.054Z,9.81
2022-09-17T06:34:06.609Z,9.78
2022-09-17T06:39:11.653Z,9.72
2022-09-17T06:44:14.156Z,9.69
2022-09-17T06:49:17.653Z,9.64
2022-09-17T06:54:21.557Z,9.72
2022-09-17T06:59:24.466Z,9.91
2022-09-17T07:04:26.973Z,10.05
2022-09-17T07:09:30.846Z,10.15
2022-09-17T07:14:33.393Z,10.18
2022-09-17T07:19:35.906Z,10.16
2022-09-17T07:24:39.826Z,10.11
2022-09-17T07:29:42.424Z,10.02
2022-09-17T07:34:44.977Z,10.01
2022-09-17T07:39:48.840Z,9.97
2022-09-17T07:44:51.398Z,9.99
2022-09-17T07:49:53.933Z,10.07
2022-09-17T07:54:57.786Z,10.14
2022-09-17T08:00:00.325Z,10.35
2022-09-17T08:05:02.834Z,10.40
2022-09-17T08:10:07.224Z,10.58
2022-09-17T08:15:10.038Z,10.78
2022-09-17T08:20:12.574Z,11.04
2022-09-17T08:25:16.498Z,10.99
2022-09-17T08:30:19.098Z,10.96
2022-09-17T08:35:21.613Z,10.98
2022-09-17T08:40:27.749Z,11.01
2022-09-17T08:45:30.594Z,11.07
2022-09-17T08:50:34.878Z,11.28
2022-09-17T08:55:41.650Z,11.59
2022-09-17T09:00:47.017Z,11.78
2022-09-17T09:05:52.451Z,12.21
2022-09-17T09:11:00.934Z,12.44
2022-09-17T09:16:05.580Z,12.56
2022-09-17T09:21:15.506Z,12.56
2022-09-17T09:26:20.561Z,12.67
2022-09-17T09:31:33.604Z,12.72
2022-09-17T09:36:39.478Z,12.81
2022-09-17T09:41:45.057Z,13.00
2022-09-17T09:46:55.543Z,13.12
2022-09-17T09:52:04.347Z,13.19
2022-09-17T09:57:11.541Z,13.20
2022-09-17T10:02:14.707Z,13.24
2022-09-17T10:07:17.353Z,13.26
2022-09-17T10:12:21.657Z,13.43
2022-09-17T10:17:25.069Z,13.61
2022-09-17T10:22:30.253Z,13.78
2022-09-17T10:27:36.879Z,13.66
2022-09-17T10:32:39.444Z,13.61
2022-09-17T10:37:45.965Z,13.48
2022-09-17T10:42:50.420Z,13.48
2022-09-17T10:47:53.559Z,13.57
2022-09-17T10:52:56.923Z,13.58
2022-09-17T10:58:09.992Z,13.66
2022-09-17T11:03:35.952Z,13.71
2022-09-17T11:08:42.277Z,14.00
2022-09-17T11:13:53.951Z,14.39
2022-09-17T11:19:01.731Z,14.79
2022-09-17T11:24:25.105Z,15.09
2022-09-17T11:29:42.812Z,15.20
2022-09-17T11:34:48.538Z,15.07
2022-09-17T11:39:55.140Z,14.93
2022-09-17T11:45:00.964Z,14.71
2022-09-17T11:50:06.863Z,14.68
2022-09-17T11:55:18.562Z,14.89
2022-09-17T12:00:23.972Z,15.12
2022-09-17T12:05:29.932Z,15.32
2022-09-17T12:10:38.137Z,15.54
2022-09-17T12:15:52.331Z,15.98
2022-09-17T12:20:59.313Z,16.01
2022-09-17T12:26:07.481Z,15.50
2022-09-17T12:31:13.921Z,15.09
2022-09-17T12:36:20.816Z,15.55
2022-09-17T12:41:25.034Z,15.63
2022-09-17T12:46:35.511Z,15.41
2022-09-17T12:51:47.476Z,15.09
2022-09-17T12:56:58.084Z,15.84
2022-09-17T13:02:04.493Z,16.10
2022-09-17T13:07:28.203Z,16.02
2022-09-17T13:12:33.754Z,15.77
2022-09-17T13:17:40.696Z,15.32
2022-09-17T13:22:45.301Z,15.51
2022-09-17T13:27:48.475Z,15.70
2022-09-17T13:32:53.477Z,15.72
2022-09-17T13:37:57.550Z,16.52
2022-09-17T13:43:08.436Z,16.58
2022-09-17T13:48:12.842Z,16.62
2022-09-17T13:53:19.329Z,16.27
2022-09-17T13:58:25.490Z,15.97
2022-09-17T14:03:44.553Z,16.74
2022-09-17T14:08:56.287Z,17.28
2022-09-17T14:13:58.954Z,18.06
2022-09-17T14:19:03.225Z,17.76
2022-09-17T14:24:20.526Z,17.13
2022-09-17T14:29:30.320Z,16.35
2022-09-17T14:34:33.325Z,16.06
2022-09-17T14:39:40.045Z,15.96
2022-09-17T14:44:49.749Z,16.00
2022-09-17T14:49:52.466Z,16.17
2022-09-17T14:55:11.986Z,16.78
2022-09-17T15:00:21.560Z,17.51
2022-09-17T15:05:26.630Z,17.37
2022-09-17T15:10:30.924Z,16.98
2022-09-17T15:15:33.643Z,16.78
2022-09-17T15:20:36.382Z,16.20
2022-09-17T15:25:40.767Z,16.33
2022-09-17T15:30:43.546Z,16.20
2022-09-17T15:35:58.965Z,15.44
2022-09-17T15:41:21.022Z,15.58
2022-09-17T15:46:26.527Z,15.81
2022-09-17T15:51:30.598Z,15.90
2022-09-17T15:56:35.402Z,15.61
2022-09-17T16:01:56.126Z,15.13
2022-09-17T16:07:13.534Z,14.79
2022-09-17T16:12:18.837Z,14.94
2022-09-17T16:17:27.996Z,15.42
2022-09-17T16:22:31.038Z,16.02
2022-09-17T16:27:36.717Z,16.26
2022-09-17T16:32:39.197Z,16.35
2022-09-17T16:37:41.682Z,16.62
2022-09-17T16:42:45.657Z,16.97
2022-09-17T16:47:48.174Z,16.94
2022-09-17T16:52:50.943Z,16.44
2022-09-17T16:57:57.569Z,15.46
2022-09-17T17:03:00.163Z,14.54
2022-09-17T17:08:06.644Z,13.85
2022-09-17T17:13:10.808Z,13.52
2022-09-17T17:18:13.311Z,12.96
2022-09-17T17:23:15.815Z,12.55
2022-09-17T17:28:19.682Z,12.09
2022-09-17T17:33:22.201Z,11.88
2022-09-17T17:38:24.700Z,11.73
2022-09-17T17:43:28.584Z,11.51
2022-09-17T17:48:31.085Z,11.36
2022-09-17T17:53:33.595Z,11.31
2022-09-17T17:58:38.244Z,11.22
2022-09-17T18:03:40.773Z,11.09
2022-09-17T18:08:44.164Z,10.99
2022-09-17T18:13:51.714Z,10.95
2022-09-17T18:18:56.296Z,10.97
2022-09-17T18:23:59.106Z,10.87
2022-09-17T18:29:07.570Z,10.83
2022-09-17T18:34:11.441Z,10.75
2022-09-17T18:44:39.309Z,10.60
2022-09-17T18:49:41.809Z,10.58
2022-09-17T18:54:45.893Z,10.49
2022-09-17T18:59:49.756Z,10.34
2022-09-17T19:04:52.273Z,10.19
2022-09-17T19:09:54.789Z,10.05
2022-09-17T19:14:58.662Z,9.92
2022-09-17T19:20:01.297Z,9.82
2022-09-17T19:25:03.893Z,9.68
2022-09-17T19:30:08.673Z,9.56
2022-09-17T19:35:11.214Z,9.41
2022-09-17T19:40:13.872Z,9.34
2022-09-17T19:45:18.081Z,9.20
2022-09-17T19:50:20.622Z,9.00
2022-09-17T19:55:24.514Z,8.96
2022-09-17T20:00:28.466Z,8.89
2022-09-17T20:05:31.055Z,8.75
2022-09-17T20:10:36.911Z,8.49
2022-09-17T20:15:40.881Z,8.31
2022-09-17T20:20:43.416Z,8.27
2022-09-17T20:25:52.201Z,8.21
2022-09-17T20:31:01.863Z,8.20
2022-09-17T20:36:06.281Z,8.13
2022-09-17T20:41:10.249Z,8.08
2022-09-17T20:46:14.646Z,7.92
2022-09-17T20:51:18.964Z,7.83
2022-09-17T20:56:22.936Z,7.81
2022-09-17T21:01:32.167Z,7.71
2022-09-17T21:06:36.393Z,7.62
2022-09-17T21:11:39.201Z,7.38
2022-09-17T21:16:43.144Z,7.27
2022-09-17T21:21:45.670Z,7.24
2022-09-17T21:26:49.604Z,7.02
2022-09-17T21:31:54.317Z,6.93
2022-09-17T21:36:56.874Z,6.84
2022-09-17T21:41:59.392Z,6.65
2022-09-17T21:47:03.298Z,6.61
2022-09-17T21:52:05.880Z,6.60
2022-09-17T21:57:08.385Z,6.59
2022-09-17T22:02:12.324Z,6.42
2022-09-17T22:07:14.885Z,6.36
2022-09-17T22:12:17.389Z,6.31
2022-09-17T22:17:21.333Z,6.18
2022-09-17T22:22:23.829Z,6.13
2022-09-17T22:27:26.366Z,6.15
2022-09-17T22:32:30.253Z,6.13
2022-09-17T22:37:32.763Z,6.14
2022-09-17T22:42:35.286Z,6.04
2022-09-17T22:47:40.837Z,6.05
2022-09-17T22:52:43.354Z,5.95
2022-09-17T22:57:45.863Z,5.91
2022-09-17T23:02:49.804Z,5.87
2022-09-17T23:07:52.480Z,5.81
2022-09-17T23:12:55.398Z,5.84
2022-09-17T23:17:59.362Z,5.72
2022-09-17T23:23:01.941Z,5.74
2022-09-17T23:28:04.461Z,5.76
2022-09-17T23:33:09.368Z,5.63
2022-09-17T23:38:11.918Z,5.58
2022-09-17T23:43:14.440Z,5.44
2022-09-17T23:48:18.338Z,5.36
2022-09-17T23:53:20.840Z,5.21
2022-09-17T23:58:23.441Z,5.18
